Aviation Digital Data Service (ADDS)

Output produced by TAFs form (0715 UTC 26 March 2017)
found at http://aviationweather.gov/adds/tafs/
 
KPUB 260528Z 2606/2706 02008KT P6SM SCT100 BKN150 
     FM261000 36009KT P6SM SCT100 BKN150 
     FM261500 35015G30KT P6SM VCSH BKN100 
     FM270100 07011KT P6SM BKN060